• Join FlightAware (Why Join?)
  • Login
  • US Flag 
05:29AM EST


 

Airport Tracker/Info


-or-


 

Live Flight TrackerFlight Track Log ✈ SWA2874 ✈ 07-May-2013 ✈ KGSP - KBWI

Flight Track Log - Related Links

Times and Time Zones

All times are in EDT time to prevent confusion due to time zone crossing. See the SWA2874 flight status page for this flight to view local times or setup timezone preferences in your user account.

Time Position Orientation Groundspeed Altitude Reporting Facility
EDT Latitude Longitude Course Direction KTS MPH feet Rate Location/Type
07:23PM 35.0050 -82.0381 61° Northeast 254 292 9,600  Level Atlanta Center
07:24PM 35.0433 -81.9508 62° Northeast 285 328 10,000 1,440 Climbing Atlanta Center
07:25PM 35.1286 -81.9361 North 268 308 12,500 2,820 Climbing Atlanta Center
07:26PM 35.2100 -81.9392 358° North 285 328 15,700 3,360 Climbing Atlanta Center
07:27PM 35.3057 -81.9333 North  Level FlightAware Approximate
07:27PM 35.2797 -81.8608 43° Northeast 310 357 19,300  Level Atlanta Center
07:28PM 35.3275 -81.7425 64° Northeast 338 389 22,400 3,000 Climbing Atlanta Center
07:29PM 35.3753 -81.6267 63° Northeast 375 432 25,300 3,300 Climbing Atlanta Center
07:30PM 35.4250 -81.5081 63° Northeast 389 448 29,100 2,220 Climbing Atlanta Center
07:31PM 35.4728 -81.3892 64° Northeast 390 449 29,800 840 Climbing Atlanta Center
07:32PM 35.5222 -81.2678 63° Northeast 402 463 30,800 1,260 Climbing Atlanta Center
07:33PM 35.5850 -81.1047 65° Northeast 441 507 32,400 1,860 Climbing Atlanta Center
07:34PM 35.6464 -80.9669 61° Northeast 466 536 34,600 1,800 Climbing Atlanta Center
07:35PM 35.7033 -80.8242 64° Northeast 466 536 36,000 1,320 Climbing Atlanta Center
07:36PM 35.7642 -80.6786 63° Northeast 460 529 37,300 1,320 Climbing Atlanta Center
07:37PM 35.8228 -80.5378 63° Northeast 460 529 38,700 1,500 Climbing Atlanta Center
07:38PM 35.8789 -80.3919 65° Northeast 460 529 40,300 1,140 Climbing Atlanta Center
07:39PM 35.9331 -80.2458 65° Northeast 460 529 41,000 180 Climbing Atlanta Center
07:41PM 36.0711 -79.9350 61° Northeast 452 520 41,000  Level Washington Center
07:42PM 36.1444 -79.8028 55° Northeast 452 520 41,000  Level Washington Center
07:43PM 36.2181 -79.6700 55° Northeast 463 533 41,000  Level Washington Center
07:44PM 36.2867 -79.5525 54° Northeast 463 533 41,000 -360 Level Washington Center
07:45PM 36.3683 -79.4122 54° Northeast 458 527 40,300 -960 Descending Washington Center
07:46PM 36.4328 -79.2864 57° Northeast 471 542 39,100 -1,560 Descending Washington Center
07:47PM 36.5078 -79.1556 54° Northeast 471 542 37,300 -2,220 Descending Washington Center
07:48PM 36.5892 -79.0169 54° Northeast 466 536 34,700 -3,000 Descending Washington Center
07:49PM 36.6617 -78.8856 55° Northeast 455 524 31,200 -2,880 Descending Washington Center
07:50PM 36.7319 -78.7511 57° Northeast 460 529 29,000 -1,140 Descending Washington Center
07:51PM 36.8042 -78.6217 55° Northeast 460 529 29,000 -480 Level Washington Center
07:52PM 36.8944 -78.5136 44° Northeast 454 522 28,100 -540 Descending Washington Center
07:53PM 36.9883 -78.4314 35° Northeast 447 514 28,000 -600 Descending Washington Center
07:54PM 37.0864 -78.3439 35° Northeast 442 509 27,000 -1,020 Descending Washington Center
07:55PM 37.1822 -78.2561 36° Northeast 431 496 26,000 -1,380 Descending Washington Center
07:56PM 37.2842 -78.1656 35° Northeast 418 481 24,300 -1,500 Descending Washington Center
07:57PM 37.3714 -78.0850 36° Northeast 401 461 23,000 -660 Descending Washington Center
07:58PM 37.4608 -78.0014 37° Northeast 395 455 23,000  Level Washington Center
07:59PM 37.5461 -77.9125 40° Northeast 395 455 23,000  Level Washington Center
08:00PM 37.6372 -77.8261 37° Northeast 400 460 23,000 -60 Level Washington Center
08:01PM 37.7286 -77.7422 36° Northeast 400 460 22,900 -600 Descending Washington Center
08:02PM 37.8197 -77.6581 36° Northeast 400 460 21,800 -1,080 Descending Washington Center
08:03PM 37.9108 -77.5736 36° Northeast 400 460 20,800 -1,020 Descending Washington Center
08:04PM 38.0017 -77.4917 35° Northeast 400 460 19,800 -960 Descending Washington Center
08:05PM 38.0822 -77.4225 34° Northeast 394 453 18,900 -960 Descending Washington Center
08:06PM 38.1689 -77.3403 37° Northeast 389 448 17,900 -900 Descending Washington Center
08:07PM 38.2469 -77.2653 37° Northeast 374 430 17,100 -1,200 Descending Washington Center
08:08PM 38.3167 -77.2008 36° Northeast 340 391 15,600 -1,080 Descending Washington Center
08:09PM 38.3844 -77.1358 37° Northeast 312 359 15,000 -780 Descending Washington Center
08:10PM 38.4600 -77.0925 24° Northeast 298 343 14,100 -960 Descending Washington Center
08:11PM 38.5417 -77.0650 15° North 290 334 13,100 -960 Descending Washington Center
08:12PM 38.5906 -76.9808 53° Northeast 275 316 12,200 -1,020 Descending Washington Center
08:13PM 38.6311 -76.8939 59° Northeast 275 316 11,100 -1,200 Descending Washington Center
08:14PM 38.6500 -76.8500 61° Northeast 272 313 10,500 -1,380 Descending Potomac TRACON
08:15PM 38.7000 -76.7667 52° Northeast 258 297 9,200 -900 Descending Potomac TRACON
08:16PM 38.7333 -76.6833 63° Northeast 256 295 8,800 -960 Descending Potomac TRACON
08:17PM 38.7667 -76.6000 63° Northeast 266 306 7,300 -1,200 Descending Potomac TRACON
08:18PM 38.8167 -76.5333 46° Northeast 280 322 6,600 -1,200 Descending Potomac TRACON
08:19PM 38.8833 -76.5500 349° North 293 337 5,000 -1,260 Descending Potomac TRACON
08:20PM 38.9667 -76.6000 335° Northwest 288 331 4,000 -540 Descending Potomac TRACON
08:21PM 39.0000 -76.6833 297° West 298 343 4,000  Level Potomac TRACON
08:22PM 39.0500 -76.7500 314° West 267 307 4,000  Level Potomac TRACON
08:23PM 39.0833 -76.8333 297° West 258 297 4,000  Level Potomac TRACON
08:24PM 39.1000 -76.9167 284° West 219 252 4,000 -360 Level Potomac TRACON
08:25PM 39.1333 -76.9500 322° Northwest 211 243 3,300 -780 Descending Potomac TRACON
08:26PM 39.1833 -76.9500 360° North 175 201 2,500 -660 Descending Potomac TRACON
08:27PM 39.1833 -76.8833 90° East 149 171 2,000 -300 Descending Potomac TRACON
08:28PM 39.1833 -76.8333 90° East 148 170 2,000 -300 Level Potomac TRACON
08:29PM 39.1833 -76.7833 90° East 152 175 1,500 -600 Descending Potomac TRACON
08:30PM 39.1833 -76.7333 90° East 123 142 900 -600 Descending Potomac TRACON